Time;durP1;ratioP1;P1;durP2;ratioP2;P2;SDS_P1;SDS_P2;PMS_P1;PMS_P2;Temp;Humidity;BMP_temperature;BMP_pressure;BME280_temperature;BME280_humidity;BME280_pressure;Samples;Min_cycle;Max_cycle;Signal;HPM_P1;HPM_P2
2023/04/05 00:00:10;;;;;;;;;;;;;;;;;;5033303;28;19938;-63
2023/04/05 00:02:36;;;;;;;;;;;;;;;;;;5039633;28;20421;-63
2023/04/05 00:05:02;;;;;;;;;;;;;;;;;;5038562;28;19948;-63
2023/04/05 00:07:28;;;;;;;;;;;;;;;;;;5034350;28;19925;-63
2023/04/05 00:09:53;;;;;;;;;;;;;;;;;;5040223;28;19944;-64
2023/04/05 00:12:19;;;;;;;;;;;;;;;;;;5034136;28;20051;-63
2023/04/05 00:14:45;;;;;;;;;;;;;;;;;;5034019;28;19922;-64
2023/04/05 00:17:12;;;;;;;;;;;;;;;;;;5040183;28;19930;-64
2023/04/05 00:19:38;;;;;;;;;;;;;;;;;;5035124;28;20310;-64
2023/04/05 00:22:04;;;;;;;;;;;;;;;;;;5044792;28;20361;-64
2023/04/05 00:24:32;;;;;;;;;;;;;;;;;;5054095;28;20002;-65
2023/04/05 00:26:58;;;;;;;;;;;;;;;;;;5032393;28;19925;-64
2023/04/05 00:29:24;;;;;;;;;;;;;;;;;;5042970;28;20266;-64
2023/04/05 00:31:50;;;;;;;;;;;;;;;;;;5025532;28;19928;-64
2023/04/05 00:34:16;;;;;;;;;;;;;;;;;;5034440;28;19925;-64
2023/04/05 00:36:42;;;;;;;;;;;;;;;;;;5043556;28;19927;-65
2023/04/05 00:39:08;;;;;;;;;;;;;;;;;;5049436;28;19952;-65
2023/04/05 00:41:35;;;;;;;;;;;;;;;;;;5033402;28;20349;-65
2023/04/05 00:44:02;;;;;;;;;;;;;;;;;;5043179;28;19925;-64
2023/04/05 00:46:28;;;;;;;;;;;;;;;;;;5043813;28;19925;-64
2023/04/05 00:48:55;;;;;;;;;;;;;;;;;;5052235;28;20003;-64
2023/04/05 00:51:22;;;;;;;;;;;;;;;;;;5039634;28;19921;-63
2023/04/05 00:53:51;;;;;;;;;;;;;;;;;;5039531;28;20321;-64
2023/04/05 00:56:17;;;;;;;;;;;;;;;;;;5053192;28;19921;-63
2023/04/05 00:58:43;;;;;;;;;;;;;;;;;;5037248;28;19936;-63
2023/04/05 01:01:12;;;;;;;;;;;;;;;;;;5044886;28;19929;-63
2023/04/05 01:03:38;;;;;;;;;;;;;;;;;;5025355;28;20016;-65
2023/04/05 01:06:04;;;;;;;;;;;;;;;;;;5037003;28;20023;-64
2023/04/05 01:08:30;;;;;;;;;;;;;;;;;;5038838;28;20294;-64
2023/04/05 01:10:56;;;;;;;;;;;;;;;;;;5043157;28;19921;-64
2023/04/05 01:13:22;;;;;;;;;;;;;;;;;;5036608;28;19960;-65
2023/04/05 01:15:48;;;;;;;;;;;;;;;;;;5040306;28;20297;-64
2023/04/05 01:18:13;;;;;;;;;;;;;;;;;;5042112;28;19933;-64
2023/04/05 01:20:41;;;;;;;;;;;;;;;;;;5030293;28;20001;-65
2023/04/05 01:23:07;;;;;;;;;;;;;;;;;;5033725;28;19929;-64
2023/04/05 01:25:35;;;;;;;;;;;;;;;;;;5033595;28;20286;-64
2023/04/05 01:28:01;;;;;;;;;;;;;;;;;;5017727;28;19921;-64
2023/04/05 01:30:27;;;;;;;;;;;;;;;;;;5033460;28;20016;-64
2023/04/05 01:32:53;;;;;;;;;;;;;;;;;;5038795;28;19925;-64
2023/04/05 01:35:19;;;;;;;;;;;;;;;;;;5031968;28;19990;-64
2023/04/05 01:37:45;;;;;;;;;;;;;;;;;;5031783;28;19929;-63
2023/04/05 01:40:11;;;;;;;;;;;;;;;;;;5050166;28;19924;-64
2023/04/05 01:42:37;;;;;;;;;;;;;;;;;;5038773;28;20052;-64
2023/04/05 01:45:03;;;;;;;;;;;;;;;;;;5042799;28;19979;-64
2023/04/05 01:47:29;;;;;;;;;;;;;;;;;;5046741;28;19925;-63
2023/04/05 01:49:55;;;;;;;;;;;;;;;;;;5043604;28;19960;-64
2023/04/05 01:52:20;;;;;;;;;;;;;;;;;;5031541;28;19967;-64
2023/04/05 01:54:46;;;;;;;;;;;;;;;;;;5046863;28;19924;-64
2023/04/05 01:57:12;;;;;;;;;;;;;;;;;;5044795;28;19932;-64
2023/04/05 01:59:38;;;;;;;;;;;;;;;;;;5041432;28;19921;-64
2023/04/05 02:02:04;;;;;;;;;;;;;;;;;;5037899;28;20006;-65
2023/04/05 02:04:30;;;;;;;;;;;;;;;;;;5032988;28;19925;-67
2023/04/05 02:06:56;;;;;;;;;;;;;;;;;;5045159;28;19921;-67
2023/04/05 02:09:22;;;;;;;;;;;;;;;;;;5031600;28;20375;-68
2023/04/05 02:11:48;;;;;;;;;;;;;;;;;;5035128;28;19924;-67
2023/04/05 02:14:13;;;;;;;;;;;;;;;;;;5044137;28;19921;-68
2023/04/05 02:16:40;;;;;;;;;;;;;;;;;;5029941;28;20374;-67
2023/04/05 02:19:06;;;;;;;;;;;;;;;;;;5032498;28;19920;-67
2023/04/05 02:21:32;;;;;;;;;;;;;;;;;;5036730;28;20298;-67
2023/04/05 02:23:58;;;;;;;;;;;;;;;;;;5048110;28;19921;-68
2023/04/05 02:26:23;;;;;;;;;;;;;;;;;;5040544;28;19920;-67
2023/04/05 02:28:49;;;;;;;;;;;;;;;;;;5031320;28;20600;-67
2023/04/05 02:31:15;;;;;;;;;;;;;;;;;;5032753;28;20382;-68
2023/04/05 02:33:41;;;;;;;;;;;;;;;;;;5026822;28;19927;-68
2023/04/05 02:36:08;;;;;;;;;;;;;;;;;;5031122;28;19920;-67
2023/04/05 02:38:34;;;;;;;;;;;;;;;;;;5050284;28;19975;-67
2023/04/05 02:41:00;;;;;;;;;;;;;;;;;;5049690;28;19929;-66
2023/04/05 02:43:26;;;;;;;;;;;;;;;;;;5029742;28;19928;-67
2023/04/05 02:45:51;;;;;;;;;;;;;;;;;;5040764;28;19921;-67
2023/04/05 02:48:17;;;;;;;;;;;;;;;;;;5042626;28;19925;-67
2023/04/05 02:50:43;;;;;;;;;;;;;;;;;;5039900;28;20270;-67
2023/04/05 02:53:10;;;;;;;;;;;;;;;;;;5049357;28;19935;-67
2023/04/05 02:55:36;;;;;;;;;;;;;;;;;;5044433;28;19932;-67
2023/04/05 02:58:01;;;;;;;;;;;;;;;;;;5036316;28;19924;-67
2023/04/05 03:00:27;;;;;;;;;;;;;;;;;;5034989;28;19921;-67
2023/04/05 03:02:53;;;;;;;;;;;;;;;;;;5044107;28;20251;-68
2023/04/05 03:05:21;;;;;;;;;;;;;;;;;;5025465;28;20549;-68
2023/04/05 03:07:49;;;;;;;;;;;;;;;;;;5019439;28;20725;-68
2023/04/05 03:10:17;;;;;;;;;;;;;;;;;;5031852;28;19932;-68
2023/04/05 03:12:43;;;;;;;;;;;;;;;;;;5031438;28;19921;-68
2023/04/05 03:15:09;;;;;;;;;;;;;;;;;;5025578;28;19928;-67
2023/04/05 03:17:36;;;;;;;;;;;;;;;;;;5011886;28;19933;-68
2023/04/05 03:20:07;;;;;;;;;;;;;;;;;;5028005;28;19968;-67
2023/04/05 03:22:33;;;;;;;;;;;;;;;;;;5029755;28;19932;-67
2023/04/05 03:24:59;;;;;;;;;;;;;;;;;;5025563;28;19930;-67
2023/04/05 03:27:26;;;;;;;;;;;;;;;;;;5020806;28;20272;-66
2023/04/05 03:29:51;;;;;;;;;;;;;;;;;;5010020;28;20680;-67
2023/04/05 03:32:17;;;;;;;;;;;;;;;;;;5011387;28;19933;-67
2023/04/05 03:34:43;;;;;;;;;;;;;;;;;;5011454;28;20041;-67
2023/04/05 03:37:09;;;;;;;;;;;;;;;;;;5028309;28;19929;-67
2023/04/05 03:39:35;;;;;;;;;;;;;;;;;;5031343;28;19921;-67
2023/04/05 03:42:01;;;;;;;;;;;;;;;;;;5029854;28;19975;-67
2023/04/05 03:44:28;;;;;;;;;;;;;;;;;;5026377;28;20386;-67
2023/04/05 03:46:54;;;;;;;;;;;;;;;;;;5012242;28;19956;-67
2023/04/05 03:49:20;;;;;;;;;;;;;;;;;;5011658;28;19930;-67
2023/04/05 03:51:46;;;;;;;;;;;;;;;;;;5010607;28;19921;-68
2023/04/05 03:54:13;;;;;;;;;;;;;;;;;;5029390;28;19998;-67
2023/04/05 03:56:39;;;;;;;;;;;;;;;;;;5031493;28;19965;-68
2023/04/05 03:59:05;;;;;;;;;;;;;;;;;;5030213;28;20026;-67
2023/04/05 04:01:31;;;;;;;;;;;;;;;;;;5031738;28;19927;-68
2023/04/05 04:03:59;;;;;;;;;;;;;;;;;;5030807;28;20378;-67
2023/04/05 04:06:25;;;;;;;;;;;;;;;;;;5011722;28;20399;-68
2023/04/05 04:08:51;;;;;;;;;;;;;;;;;;5020130;28;19924;-68
2023/04/05 04:11:17;;;;;;;;;;;;;;;;;;5032769;28;20016;-67
2023/04/05 04:13:43;;;;;;;;;;;;;;;;;;5047347;28;19925;-67
2023/04/05 04:16:09;;;;;;;;;;;;;;;;;;5045682;28;19932;-68
2023/04/05 04:18:35;;;;;;;;;;;;;;;;;;5045514;28;19925;-67
2023/04/05 04:21:05;;;;;;;;;;;;;;;;;;5030711;28;19975;-68
2023/04/05 04:23:31;;;;;;;;;;;;;;;;;;5012547;28;19929;-68
2023/04/05 04:25:57;;;;;;;;;;;;;;;;;;5043748;28;19930;-67
2023/04/05 04:28:23;;;;;;;;;;;;;;;;;;5038468;28;19925;-68
2023/04/05 04:30:49;;;;;;;;;;;;;;;;;;5037382;28;20078;-67
2023/04/05 04:33:16;;;;;;;;;;;;;;;;;;5037810;28;19921;-67
2023/04/05 04:35:45;;;;;;;;;;;;;;;;;;5033926;28;19993;-67
2023/04/05 04:38:19;;;;;;;;;;;;;;;;;;5036208;28;19925;-68
2023/04/05 04:40:52;;;;;;;;;;;;;;;;;;5046363;28;20262;-68
2023/04/05 04:43:25;;;;;;;;;;;;;;;;;;5036885;28;19925;-67
2023/04/05 04:45:53;;;;;;;;;;;;;;;;;;5025101;28;20016;-68
2023/04/05 04:48:19;;;;;;;;;;;;;;;;;;5056771;28;19940;-69
2023/04/05 04:50:45;;;;;;;;;;;;;;;;;;5042319;28;19932;-68
2023/04/05 04:53:12;;;;;;;;;;;;;;;;;;5034618;28;19921;-66
2023/04/05 04:55:40;;;;;;;;;;;;;;;;;;5033531;28;19921;-67
2023/04/05 04:58:08;;;;;;;;;;;;;;;;;;5032914;28;19932;-69
2023/04/05 05:00:34;;;;;;;;;;;;;;;;;;5034211;28;19921;-68
2023/04/05 05:03:00;;;;;;;;;;;;;;;;;;5033644;28;19925;-68
2023/04/05 05:05:26;;;;;;;;;;;;;;;;;;5030167;28;19965;-68
2023/04/05 05:07:52;;;;;;;;;;;;;;;;;;5032569;28;19921;-68
2023/04/05 05:10:18;;;;;;;;;;;;;;;;;;5032651;28;20011;-68
2023/04/05 05:12:44;;;;;;;;;;;;;;;;;;5034055;28;19963;-67
2023/04/05 05:15:10;;;;;;;;;;;;;;;;;;5034115;28;20016;-67
2023/04/05 05:17:36;;;;;;;;;;;;;;;;;;5032237;28;19933;-67
2023/04/05 05:20:08;;;;;;;;;;;;;;;;;;5029741;28;20384;-67
2023/04/05 05:22:35;;;;;;;;;;;;;;;;;;5013933;28;19928;-67
2023/04/05 05:25:01;;;;;;;;;;;;;;;;;;5014025;28;20412;-67
2023/04/05 05:27:27;;;;;;;;;;;;;;;;;;5029783;28;19929;-67
2023/04/05 05:29:53;;;;;;;;;;;;;;;;;;5034032;28;19932;-67
2023/04/05 05:32:19;;;;;;;;;;;;;;;;;;5033666;28;20323;-67
2023/04/05 05:34:47;;;;;;;;;;;;;;;;;;5033717;28;19928;-68
2023/04/05 05:37:13;;;;;;;;;;;;;;;;;;5032125;28;19925;-67
2023/04/05 05:39:39;;;;;;;;;;;;;;;;;;5032802;28;19936;-67
2023/04/05 05:42:05;;;;;;;;;;;;;;;;;;5014416;28;19925;-67
2023/04/05 05:44:31;;;;;;;;;;;;;;;;;;5012529;28;20336;-66
2023/04/05 05:46:57;;;;;;;;;;;;;;;;;;5015013;28;20408;-68
2023/04/05 05:49:23;;;;;;;;;;;;;;;;;;5032363;28;19975;-68
2023/04/05 05:51:49;;;;;;;;;;;;;;;;;;5033276;28;19974;-68
2023/04/05 05:54:15;;;;;;;;;;;;;;;;;;5022599;28;19929;-67
2023/04/05 05:56:41;;;;;;;;;;;;;;;;;;5030259;28;19929;-68
2023/04/05 05:59:07;;;;;;;;;;;;;;;;;;5031454;28;20012;-68
2023/04/05 06:01:37;;;;;;;;;;;;;;;;;;5029673;28;19921;-66
2023/04/05 06:04:02;;;;;;;;;;;;;;;;;;5031586;28;19929;-66
2023/04/05 06:06:28;;;;;;;;;;;;;;;;;;5029327;28;19921;-67
2023/04/05 06:08:54;;;;;;;;;;;;;;;;;;5029799;28;19921;-67
2023/04/05 06:11:21;;;;;;;;;;;;;;;;;;5014554;28;20287;-67
2023/04/05 06:13:47;;;;;;;;;;;;;;;;;;5012586;28;19922;-69
2023/04/05 06:16:13;;;;;;;;;;;;;;;;;;5012449;28;19922;-68
2023/04/05 06:18:39;;;;;;;;;;;;;;;;;;5023424;28;20383;-67
2023/04/05 06:21:05;;;;;;;;;;;;;;;;;;5012168;28;19932;-68
2023/04/05 06:23:31;;;;;;;;;;;;;;;;;;5030470;28;19925;-68
2023/04/05 06:25:57;;;;;;;;;;;;;;;;;;5030526;28;20390;-68
2023/04/05 06:28:23;;;;;;;;;;;;;;;;;;5030725;28;19925;-66
2023/04/05 06:30:49;;;;;;;;;;;;;;;;;;5030779;28;19928;-67
2023/04/05 06:33:15;;;;;;;;;;;;;;;;;;5031368;28;19921;-66
2023/04/05 06:35:41;;;;;;;;;;;;;;;;;;5031906;28;19928;-67
2023/04/05 06:38:07;;;;;;;;;;;;;;;;;;5029813;28;19936;-67
2023/04/05 06:40:32;;;;;;;;;;;;;;;;;;5032947;28;20004;-67
2023/04/05 06:42:58;;;;;;;;;;;;;;;;;;5031004;28;20401;-67
2023/04/05 06:45:25;;;;;;;;;;;;;;;;;;5041870;28;19924;-67
2023/04/05 06:47:51;;;;;;;;;;;;;;;;;;5048092;28;19959;-67
2023/04/05 06:50:16;;;;;;;;;;;;;;;;;;5050840;28;20419;-66
2023/04/05 06:52:42;;;;;;;;;;;;;;;;;;5037959;28;19920;-66
2023/04/05 06:55:08;;;;;;;;;;;;;;;;;;5010648;28;19921;-66
2023/04/05 06:57:34;;;;;;;;;;;;;;;;;;5042432;28;20301;-66
2023/04/05 07:00:00;;;;;;;;;;;;;;;;;;5044303;28;19929;-67
2023/04/05 07:02:26;;;;;;;;;;;;;;;;;;5039820;28;20052;-67
2023/04/05 07:04:52;;;;;;;;;;;;;;;;;;5047683;28;19931;-67
2023/04/05 07:07:18;;;;;;;;;;;;;;;;;;5034795;28;20006;-67
2023/04/05 07:09:44;;;;;;;;;;;;;;;;;;5031084;28;20367;-66
2023/04/05 07:12:10;;;;;;;;;;;;;;;;;;5025954;28;20011;-67
2023/04/05 07:14:36;;;;;;;;;;;;;;;;;;5035727;28;19925;-67
2023/04/05 07:17:02;;;;;;;;;;;;;;;;;;5037207;28;19921;-67
2023/04/05 07:19:28;;;;;;;;;;;;;;;;;;5041272;28;19921;-67
2023/04/05 07:21:54;;;;;;;;;;;;;;;;;;5047819;28;20016;-67
2023/04/05 07:24:20;;;;;;;;;;;;;;;;;;5031569;28;19929;-67
2023/04/05 07:26:46;;;;;;;;;;;;;;;;;;5036211;28;19920;-67
2023/04/05 07:29:11;;;;;;;;;;;;;;;;;;5037378;28;19968;-67
2023/04/05 07:31:37;;;;;;;;;;;;;;;;;;5047087;28;19921;-66
2023/04/05 07:34:03;;;;;;;;;;;;;;;;;;5042324;28;19925;-67
2023/04/05 07:36:30;;;;;;;;;;;;;;;;;;5006270;28;20048;-67
2023/04/05 07:38:55;;;;;;;;;;;;;;;;;;5030033;28;20020;-67
2023/04/05 07:41:22;;;;;;;;;;;;;;;;;;5040437;28;20027;-67
2023/04/05 07:43:48;;;;;;;;;;;;;;;;;;5023524;28;19925;-66
2023/04/05 07:46:14;;;;;;;;;;;;;;;;;;5034583;28;19921;-68
2023/04/05 07:48:40;;;;;;;;;;;;;;;;;;5030497;28;20329;-67
2023/04/05 07:51:07;;;;;;;;;;;;;;;;;;5029929;28;19921;-67
2023/04/05 07:53:33;;;;;;;;;;;;;;;;;;5030352;28;19956;-66
2023/04/05 07:55:59;;;;;;;;;;;;;;;;;;5029507;28;19925;-66
2023/04/05 07:58:29;;;;;;;;;;;;;;;;;;5011990;28;20334;-66
2023/04/05 08:00:55;;;;;;;;;;;;;;;;;;5034366;28;19921;-67
2023/04/05 08:03:21;;;;;;;;;;;;;;;;;;5041423;28;19957;-66
2023/04/05 08:05:47;;;;;;;;;;;;;;;;;;5046450;28;19978;-67
2023/04/05 08:08:13;;;;;;;;;;;;;;;;;;5037383;28;19968;-67
2023/04/05 08:10:39;;;;;;;;;;;;;;;;;;5033862;28;20216;-67
2023/04/05 08:13:07;;;;;;;;;;;;;;;;;;5035308;28;20163;-67
2023/04/05 08:15:33;;;;;;;;;;;;;;;;;;5035371;28;19932;-67
2023/04/05 08:17:58;;;;;;;;;;;;;;;;;;5035213;28;19925;-67
2023/04/05 08:20:25;;;;;;;;;;;;;;;;;;5070902;22;20019;-64
2023/04/05 08:22:51;;;;;;;;;;;;;;;;;;5071630;28;19975;-64
2023/04/05 08:25:16;;;;;;;;;;;;;;;;;;5053713;28;19921;-64
2023/04/05 08:27:42;;;;;;;;;;;;;;;;;;5061328;28;20421;-64
2023/04/05 08:30:08;;;;;;;;;;;;;;;;;;5075343;28;19927;-65
2023/04/05 08:32:34;;;;;;;;;;;;;;;;;;5075180;28;19924;-65
2023/04/05 08:35:00;;;;;;;;;;;;;;;;;;5075291;28;20373;-65
2023/04/05 08:37:26;;;;;;;;;;;;;;;;;;5074850;28;20277;-65
2023/04/05 08:39:52;;;;;;;;;;;;;;;;;;5067633;28;20630;-65
2023/04/05 08:42:18;;;;;;;;;;;;;;;;;;5053387;28;19932;-65
2023/04/05 08:44:47;;;;;;;;;;;;;;;;;;5054940;28;19921;-65
2023/04/05 08:47:17;;;;;;;;;;;;;;;;;;5054967;28;20310;-65
2023/04/05 08:49:43;;;;;;;;;;;;;;;;;;5068839;28;19931;-68
2023/04/05 08:52:09;;;;;;;;;;;;;;;;;;5074038;28;19948;-68
2023/04/05 08:54:34;;;;;;;;;;;;;;;;;;5073111;28;19967;-67
2023/04/05 08:57:02;;;;;;;;;;;;;;;;;;5074278;28;20689;-68
2023/04/05 08:59:28;;;;;;;;;;;;;;;;;;5074546;28;19920;-68
2023/04/05 09:01:54;;;;;;;;;;;;;;;;;;5069852;28;19932;-65
2023/04/05 09:04:20;;;;;;;;;;;;;;;;;;5068423;28;19968;-68
2023/04/05 09:06:46;;;;;;;;;;;;;;;;;;5070638;28;19920;-67
2023/04/05 09:09:12;;;;;;;;;;;;;;;;;;5073814;28;20346;-66
2023/04/05 09:11:38;;;;;;;;;;;;;;;;;;5073127;28;19928;-68
2023/04/05 09:14:04;;;;;;;;;;;;;;;;;;5070001;28;20258;-67
2023/04/05 09:16:30;;;;;;;;;;;;;;;;;;5070505;28;19921;-67
2023/04/05 09:18:56;;;;;;;;;;;;;;;;;;5070499;28;19990;-67
2023/04/05 09:21:22;;;;;;;;;;;;;;;;;;5071002;28;20278;-68
2023/04/05 09:23:48;;;;;;;;;;;;;;;;;;5071775;28;20533;-68
2023/04/05 09:26:14;;;;;;;;;;;;;;;;;;5072965;28;19981;-68
2023/04/05 09:28:40;;;;;;;;;;;;;;;;;;5072882;28;19925;-67
2023/04/05 09:31:06;;;;;;;;;;;;;;;;;;5068028;28;20051;-68
2023/04/05 09:33:32;;;;;;;;;;;;;;;;;;5072412;28;20401;-68
2023/04/05 09:35:58;;;;;;;;;;;;;;;;;;5055901;28;19930;-67
2023/04/05 09:38:24;;;;;;;;;;;;;;;;;;5070090;28;20585;-68
2023/04/05 09:40:51;;;;;;;;;;;;;;;;;;5073603;28;20019;-68
2023/04/05 09:43:17;;;;;;;;;;;;;;;;;;5073459;28;19928;-67
2023/04/05 09:45:44;;;;;;;;;;;;;;;;;;5069587;28;19951;-67
2023/04/05 09:48:12;;;;;;;;;;;;;;;;;;5061902;28;20028;-67
2023/04/05 09:50:38;;;;;;;;;;;;;;;;;;5071744;28;19966;-67
2023/04/05 09:53:04;;;;;;;;;;;;;;;;;;5069567;28;20273;-67
2023/04/05 09:55:32;;;;;;;;;;;;;;;;;;5071278;28;19924;-67
2023/04/05 09:57:58;;;;;;;;;;;;;;;;;;5068783;28;19928;-67
2023/04/05 10:00:23;;;;;;;;;;;;;;;;;;5076437;28;19927;-67
2023/04/05 10:02:50;;;;;;;;;;;;;;;;;;5071101;28;20018;-67
2023/04/05 10:05:16;;;;;;;;;;;;;;;;;;5070933;28;20007;-67
2023/04/05 10:07:42;;;;;;;;;;;;;;;;;;5071817;28;20065;-67
2023/04/05 10:10:08;;;;;;;;;;;;;;;;;;5070690;28;20388;-67
2023/04/05 10:12:34;;;;;;;;;;;;;;;;;;5067845;28;20011;-67
2023/04/05 10:15:00;;;;;;;;;;;;;;;;;;5072128;28;20131;-67
2023/04/05 10:17:26;;;;;;;;;;;;;;;;;;5069696;28;20334;-67
2023/04/05 10:19:52;;;;;;;;;;;;;;;;;;5064810;28;19929;-68
2023/04/05 10:22:18;;;;;;;;;;;;;;;;;;5052186;28;19931;-68
2023/04/05 10:24:44;;;;;;;;;;;;;;;;;;5067199;28;19927;-68
2023/04/05 10:27:10;;;;;;;;;;;;;;;;;;5068613;28;19921;-67
2023/04/05 10:29:36;;;;;;;;;;;;;;;;;;5070918;28;19928;-67
2023/04/05 10:32:02;;;;;;;;;;;;;;;;;;5070123;28;19950;-67
2023/04/05 10:34:28;;;;;;;;;;;;;;;;;;5071688;28;19970;-67
2023/04/05 10:36:54;;;;;;;;;;;;;;;;;;5066369;28;19964;-67
2023/04/05 10:39:20;;;;;;;;;;;;;;;;;;5053523;28;19935;-67
2023/04/05 10:41:46;;;;;;;;;;;;;;;;;;5072053;28;20355;-63
2023/04/05 10:44:12;;;;;;;;;;;;;;;;;;5070551;28;19926;-64
2023/04/05 10:46:37;;;;;;;;;;;;;;;;;;5067960;28;19920;-63
2023/04/05 10:49:03;;;;;;;;;;;;;;;;;;5084330;28;19946;-64
2023/04/05 10:51:30;;;;;;;;;;;;;;;;;;5092671;28;19928;-63
2023/04/05 10:53:56;;;;;;;;;;;;;;;;;;5072289;28;19924;-63
2023/04/05 10:56:22;;;;;;;;;;;;;;;;;;5071281;28;19928;-63
2023/04/05 10:58:48;;;;;;;;;;;;;;;;;;5070037;28;20434;-62
2023/04/05 11:01:16;;;;;;;;;;;;;;;;;;5071462;28;21289;-62
2023/04/05 11:03:42;;;;;;;;;;;;;;;;;;5071082;28;20281;-62
2023/04/05 11:06:08;;;;;;;;;;;;;;;;;;5071926;28;19925;-62
2023/04/05 11:08:34;;;;;;;;;;;;;;;;;;5072106;28;19964;-62
2023/04/05 11:11:00;;;;;;;;;;;;;;;;;;5049488;28;19952;-62
2023/04/05 11:13:26;;;;;;;;;;;;;;;;;;5051818;28;20277;-62
2023/04/05 11:15:52;;;;;;;;;;;;;;;;;;5051736;28;19966;-62
2023/04/05 11:18:18;;;;;;;;;;;;;;;;;;5050465;28;19929;-62
2023/04/05 11:20:43;;;;;;;;;;;;;;;;;;5051390;28;19924;-62
2023/04/05 11:23:09;;;;;;;;;;;;;;;;;;5051705;28;19920;-62
2023/04/05 11:25:35;;;;;;;;;;;;;;;;;;5049956;28;19968;-63
2023/04/05 11:28:01;;;;;;;;;;;;;;;;;;5050893;28;20023;-61
2023/04/05 11:30:27;;;;;;;;;;;;;;;;;;5051281;28;19921;-62
2023/04/05 11:32:53;;;;;;;;;;;;;;;;;;5051311;28;19924;-62
2023/04/05 11:35:22;;;;;;;;;;;;;;;;;;5050997;28;20041;-62
2023/04/05 11:37:48;;;;;;;;;;;;;;;;;;5051503;28;19935;-62
2023/04/05 11:40:14;;;;;;;;;;;;;;;;;;5050268;28;19921;-62
2023/04/05 11:42:40;;;;;;;;;;;;;;;;;;5054327;28;19953;-62
2023/04/05 11:45:06;;;;;;;;;;;;;;;;;;5054738;28;19933;-62
2023/04/05 11:47:32;;;;;;;;;;;;;;;;;;5055227;28;19987;-62
2023/04/05 11:49:58;;;;;;;;;;;;;;;;;;5055171;28;19921;-62
2023/04/05 11:52:24;;;;;;;;;;;;;;;;;;5055751;28;19966;-62
2023/04/05 11:54:50;;;;;;;;;;;;;;;;;;5055099;28;20293;-62
2023/04/05 11:57:16;;;;;;;;;;;;;;;;;;5053336;28;19967;-62
2023/04/05 11:59:42;;;;;;;;;;;;;;;;;;5055128;28;19925;-63
2023/04/05 12:02:08;;;;;;;;;;;;;;;;;;5054182;28;19925;-64
2023/04/05 12:04:34;;;;;;;;;;;;;;;;;;5055058;28;20393;-63
2023/04/05 12:07:00;;;;;;;;;;;;;;;;;;5069845;28;19921;-63
2023/04/05 12:09:27;;;;;;;;;;;;;;;;;;5054654;28;19928;-63
2023/04/05 12:11:54;;;;;;;;;;;;;;;;;;5053402;28;20326;-63
2023/04/05 12:14:19;;;;;;;;;;;;;;;;;;5054440;28;19928;-62
2023/04/05 12:16:45;;;;;;;;;;;;;;;;;;5054646;28;19924;-62
2023/04/05 12:19:11;;;;;;;;;;;;;;;;;;5054020;28;19948;-62
2023/04/05 12:21:37;;;;;;;;;;;;;;;;;;5055015;28;19927;-62
2023/04/05 12:24:03;;;;;;;;;;;;;;;;;;5055276;28;19921;-62
2023/04/05 12:26:33;;;;;;;;;;;;;;;;;;5069863;28;20406;-63
2023/04/05 12:29:00;;;;;;;;;;;;;;;;;;5054937;28;19921;-63
2023/04/05 12:31:26;;;;;;;;;;;;;;;;;;5054808;28;19920;-67
2023/04/05 12:33:52;;;;;;;;;;;;;;;;;;5068474;28;19944;-67
2023/04/05 12:36:18;;;;;;;;;;;;;;;;;;5074968;28;19920;-67
2023/04/05 12:38:44;;;;;;;;;;;;;;;;;;5074781;28;19943;-67
2023/04/05 12:41:10;;;;;;;;;;;;;;;;;;5062700;28;19921;-62
2023/04/05 12:43:35;;;;;;;;;;;;;;;;;;5052986;28;20559;-63
2023/04/05 12:46:01;;;;;;;;;;;;;;;;;;5054612;28;19928;-63
2023/04/05 12:48:27;;;;;;;;;;;;;;;;;;5070001;28;20349;-62
2023/04/05 12:50:53;;;;;;;;;;;;;;;;;;5054741;28;19921;-62
2023/04/05 12:53:20;;;;;;;;;;;;;;;;;;5071778;28;19921;-62
2023/04/05 12:55:45;;;;;;;;;;;;;;;;;;5074465;28;20415;-62
2023/04/05 12:58:13;;;;;;;;;;;;;;;;;;5074238;28;19928;-63
2023/04/05 13:00:39;;;;;;;;;;;;;;;;;;5074427;28;19964;-61
2023/04/05 13:03:05;;;;;;;;;;;;;;;;;;5056811;28;19924;-61
2023/04/05 13:05:31;;;;;;;;;;;;;;;;;;5069694;28;20281;-62
2023/04/05 13:07:56;;;;;;;;;;;;;;;;;;5054427;28;19921;-62
2023/04/05 13:10:23;;;;;;;;;;;;;;;;;;5053766;28;19940;-62
2023/04/05 13:12:49;;;;;;;;;;;;;;;;;;5054383;28;20365;-64
2023/04/05 13:15:14;;;;;;;;;;;;;;;;;;5054582;28;19927;-65
2023/04/05 13:17:40;;;;;;;;;;;;;;;;;;5054276;28;19938;-64
2023/04/05 13:20:06;;;;;;;;;;;;;;;;;;5052853;28;19964;-62
2023/04/05 13:22:32;;;;;;;;;;;;;;;;;;5054169;28;19927;-62
2023/04/05 13:24:58;;;;;;;;;;;;;;;;;;5052620;28;19928;-62
2023/04/05 13:27:24;;;;;;;;;;;;;;;;;;5059617;28;21553;-63
2023/04/05 13:29:50;;;;;;;;;;;;;;;;;;5067111;28;19969;-62
2023/04/05 13:32:16;;;;;;;;;;;;;;;;;;5072860;28;19921;-63
2023/04/05 13:34:42;;;;;;;;;;;;;;;;;;5071886;28;19932;-63
2023/04/05 13:37:08;;;;;;;;;;;;;;;;;;5070407;28;19921;-63
2023/04/05 13:39:34;;;;;;;;;;;;;;;;;;5054403;28;19929;-63
2023/04/05 13:42:00;;;;;;;;;;;;;;;;;;5071037;28;19920;-63
2023/04/05 13:44:26;;;;;;;;;;;;;;;;;;5053438;28;20424;-62
2023/04/05 13:46:52;;;;;;;;;;;;;;;;;;5072669;28;20015;-63
2023/04/05 13:49:18;;;;;;;;;;;;;;;;;;5070154;28;19925;-62
2023/04/05 13:51:44;;;;;;;;;;;;;;;;;;5060615;28;19963;-63
2023/04/05 13:54:10;;;;;;;;;;;;;;;;;;5066713;28;20345;-62
2023/04/05 13:56:36;;;;;;;;;;;;;;;;;;5071950;28;19931;-62
2023/04/05 13:59:02;;;;;;;;;;;;;;;;;;5072184;28;19960;-62
2023/04/05 14:01:28;;;;;;;;;;;;;;;;;;5068604;28;19971;-62
2023/04/05 14:03:54;;;;;;;;;;;;;;;;;;5069630;28;20563;-62
2023/04/05 14:06:20;;;;;;;;;;;;;;;;;;5069442;28;19924;-63
2023/04/05 14:08:46;;;;;;;;;;;;;;;;;;5071460;28;19920;-62
2023/04/05 14:11:12;;;;;;;;;;;;;;;;;;5062064;28;19999;-67
2023/04/05 14:13:37;;;;;;;;;;;;;;;;;;5071297;28;20374;-67
2023/04/05 14:16:03;;;;;;;;;;;;;;;;;;5070538;28;19924;-66
2023/04/05 14:18:29;;;;;;;;;;;;;;;;;;5068961;28;20289;-66
2023/04/05 14:20:55;;;;;;;;;;;;;;;;;;5070522;28;19924;-67
2023/04/05 14:23:21;;;;;;;;;;;;;;;;;;5069498;28;19943;-66
2023/04/05 14:25:47;;;;;;;;;;;;;;;;;;5070893;28;20255;-67
2023/04/05 14:28:13;;;;;;;;;;;;;;;;;;5070788;28;19974;-66
2023/04/05 14:30:39;;;;;;;;;;;;;;;;;;5067586;28;19967;-67
2023/04/05 14:33:05;;;;;;;;;;;;;;;;;;5069949;28;20653;-67
2023/04/05 14:35:31;;;;;;;;;;;;;;;;;;5070958;28;20413;-67
2023/04/05 14:37:57;;;;;;;;;;;;;;;;;;5069489;28;19971;-67
2023/04/05 14:40:23;;;;;;;;;;;;;;;;;;5071629;28;19924;-67
2023/04/05 14:42:48;;;;;;;;;;;;;;;;;;5070180;28;20296;-67
2023/04/05 14:45:15;;;;;;;;;;;;;;;;;;5071791;28;20294;-66
2023/04/05 14:47:41;;;;;;;;;;;;;;;;;;5072112;28;19928;-66
2023/04/05 14:50:07;;;;;;;;;;;;;;;;;;5072029;28;19966;-67
2023/04/05 14:52:32;;;;;;;;;;;;;;;;;;5071795;28;19924;-67
2023/04/05 14:54:58;;;;;;;;;;;;;;;;;;5071885;28;20389;-67
2023/04/05 14:57:24;;;;;;;;;;;;;;;;;;5072018;28;20011;-67
2023/04/05 14:59:50;;;;;;;;;;;;;;;;;;5055479;28;19953;-66
2023/04/05 15:02:16;;;;;;;;;;;;;;;;;;5052013;28;20363;-67
2023/04/05 15:04:42;;;;;;;;;;;;;;;;;;5050465;28;19981;-67
2023/04/05 15:07:08;;;;;;;;;;;;;;;;;;5051585;28;19921;-67
2023/04/05 15:09:34;;;;;;;;;;;;;;;;;;5051891;28;19928;-67
2023/04/05 15:12:01;;;;;;;;;;;;;;;;;;5051542;28;20414;-66
2023/04/05 15:14:27;;;;;;;;;;;;;;;;;;5050330;28;19924;-67
2023/04/05 15:16:53;;;;;;;;;;;;;;;;;;5051144;28;20404;-67
2023/04/05 15:19:19;;;;;;;;;;;;;;;;;;5051434;28;19924;-67
2023/04/05 15:21:45;;;;;;;;;;;;;;;;;;5051083;28;20008;-67
2023/04/05 15:24:11;;;;;;;;;;;;;;;;;;5060506;28;19924;-67
2023/04/05 15:26:37;;;;;;;;;;;;;;;;;;5087761;28;19939;-67
2023/04/05 15:29:03;;;;;;;;;;;;;;;;;;5089094;28;19921;-67
2023/04/05 15:31:29;;;;;;;;;;;;;;;;;;5070032;28;19926;-66
2023/04/05 15:33:55;;;;;;;;;;;;;;;;;;5069889;28;19924;-66
2023/04/05 15:36:21;;;;;;;;;;;;;;;;;;5070909;28;19978;-66
2023/04/05 15:38:47;;;;;;;;;;;;;;;;;;5062628;28;19939;-65
2023/04/05 15:41:13;;;;;;;;;;;;;;;;;;5050059;28;19964;-66
2023/04/05 15:43:39;;;;;;;;;;;;;;;;;;5058228;28;19950;-66
2023/04/05 15:46:05;;;;;;;;;;;;;;;;;;5067034;28;19928;-66
2023/04/05 15:48:31;;;;;;;;;;;;;;;;;;5071679;28;19931;-66
2023/04/05 15:50:57;;;;;;;;;;;;;;;;;;5065401;28;19947;-66
2023/04/05 15:53:23;;;;;;;;;;;;;;;;;;5065806;28;19928;-66
2023/04/05 15:55:49;;;;;;;;;;;;;;;;;;5067789;28;19920;-67
2023/04/05 15:58:15;;;;;;;;;;;;;;;;;;5070868;28;19975;-66
2023/04/05 16:00:41;;;;;;;;;;;;;;;;;;5068699;28;19967;-67
2023/04/05 16:03:07;;;;;;;;;;;;;;;;;;5068106;28;20007;-66
2023/04/05 16:05:33;;;;;;;;;;;;;;;;;;5068943;28;19920;-66
2023/04/05 16:07:58;;;;;;;;;;;;;;;;;;5069361;28;19977;-67
2023/04/05 16:10:24;;;;;;;;;;;;;;;;;;5065843;28;19980;-67
2023/04/05 16:12:50;;;;;;;;;;;;;;;;;;5069571;28;21500;-67
2023/04/05 16:15:16;;;;;;;;;;;;;;;;;;5067251;28;19924;-67
2023/04/05 16:17:42;;;;;;;;;;;;;;;;;;5051798;28;19970;-66
2023/04/05 16:20:08;;;;;;;;;;;;;;;;;;5070181;28;19929;-67
2023/04/05 16:22:34;;;;;;;;;;;;;;;;;;5070437;28;19924;-67
2023/04/05 16:25:00;;;;;;;;;;;;;;;;;;5067181;28;19931;-66
2023/04/05 16:27:26;;;;;;;;;;;;;;;;;;5069694;28;19971;-67
2023/04/05 16:29:52;;;;;;;;;;;;;;;;;;5071486;28;19925;-66
2023/04/05 16:32:18;;;;;;;;;;;;;;;;;;5074735;28;19924;-67
2023/04/05 16:34:44;;;;;;;;;;;;;;;;;;5089118;28;19920;-67
2023/04/05 16:37:10;;;;;;;;;;;;;;;;;;5071838;28;20009;-67